sensor_id;sensor_type;location;lat;lon;timestamp;P1;durP1;ratioP1;P2;durP2;ratioP2
75787;SDS011;64406;50.024;14.492;2024-03-29T00:01:46;3.78;;;1.60;;
75787;SDS011;64406;50.024;14.492;2024-03-29T00:04:12;2.78;;;1.40;;
75787;SDS011;64406;50.024;14.492;2024-03-29T00:06:37;2.55;;;1.52;;
75787;SDS011;64406;50.024;14.492;2024-03-29T00:09:03;3.00;;;1.70;;
75787;SDS011;64406;50.024;14.492;2024-03-29T00:11:29;3.78;;;1.75;;
75787;SDS011;64406;50.024;14.492;2024-03-29T00:13:56;3.20;;;1.58;;
75787;SDS011;64406;50.024;14.492;2024-03-29T00:16:22;3.38;;;1.63;;
75787;SDS011;64406;50.024;14.492;2024-03-29T00:18:51;3.47;;;1.33;;
75787;SDS011;64406;50.024;14.492;2024-03-29T00:21:17;2.42;;;1.65;;
75787;SDS011;64406;50.024;14.492;2024-03-29T00:23:43;1.88;;;1.17;;
75787;SDS011;64406;50.024;14.492;2024-03-29T00:26:10;1.85;;;1.17;;
75787;SDS011;64406;50.024;14.492;2024-03-29T00:28:37;2.35;;;1.40;;
75787;SDS011;64406;50.024;14.492;2024-03-29T00:31:03;3.03;;;1.67;;
75787;SDS011;64406;50.024;14.492;2024-03-29T00:33:29;2.40;;;1.30;;
75787;SDS011;64406;50.024;14.492;2024-03-29T00:35:55;3.40;;;1.90;;
75787;SDS011;64406;50.024;14.492;2024-03-29T00:38:21;2.33;;;1.55;;
75787;SDS011;64406;50.024;14.492;2024-03-29T00:40:47;2.78;;;1.40;;
75787;SDS011;64406;50.024;14.492;2024-03-29T00:43:12;2.53;;;1.38;;
75787;SDS011;64406;50.024;14.492;2024-03-29T00:45:38;2.53;;;1.70;;
75787;SDS011;64406;50.024;14.492;2024-03-29T00:48:04;2.08;;;1.30;;
75787;SDS011;64406;50.024;14.492;2024-03-29T00:50:29;2.20;;;1.38;;
75787;SDS011;64406;50.024;14.492;2024-03-29T00:52:55;2.55;;;1.85;;
75787;SDS011;64406;50.024;14.492;2024-03-29T00:55:20;3.83;;;1.52;;
75787;SDS011;64406;50.024;14.492;2024-03-29T00:57:46;2.53;;;1.42;;
75787;SDS011;64406;50.024;14.492;2024-03-29T01:00:12;1.88;;;1.33;;
75787;SDS011;64406;50.024;14.492;2024-03-29T01:02:38;1.50;;;1.13;;
75787;SDS011;64406;50.024;14.492;2024-03-29T01:05:03;4.28;;;1.50;;
75787;SDS011;64406;50.024;14.492;2024-03-29T01:07:30;1.45;;;1.20;;
75787;SDS011;64406;50.024;14.492;2024-03-29T01:09:55;2.78;;;1.80;;
75787;SDS011;64406;50.024;14.492;2024-03-29T01:12:21;2.00;;;1.15;;
75787;SDS011;64406;50.024;14.492;2024-03-29T01:14:46;2.25;;;1.30;;
75787;SDS011;64406;50.024;14.492;2024-03-29T01:17:12;3.47;;;1.40;;
75787;SDS011;64406;50.024;14.492;2024-03-29T01:19:37;1.80;;;1.23;;
75787;SDS011;64406;50.024;14.492;2024-03-29T01:22:03;2.20;;;1.35;;
75787;SDS011;64406;50.024;14.492;2024-03-29T01:24:29;2.78;;;1.48;;
75787;SDS011;64406;50.024;14.492;2024-03-29T01:26:55;3.03;;;1.23;;
75787;SDS011;64406;50.024;14.492;2024-03-29T01:29:21;13.10;;;1.65;;
75787;SDS011;64406;50.024;14.492;2024-03-29T01:31:46;3.38;;;1.20;;
75787;SDS011;64406;50.024;14.492;2024-03-29T01:34:12;3.13;;;1.70;;
75787;SDS011;64406;50.024;14.492;2024-03-29T01:36:38;3.00;;;1.35;;
75787;SDS011;64406;50.024;14.492;2024-03-29T01:39:03;1.52;;;1.30;;
75787;SDS011;64406;50.024;14.492;2024-03-29T01:41:29;2.78;;;1.65;;
75787;SDS011;64406;50.024;14.492;2024-03-29T01:43:55;1.67;;;1.35;;
75787;SDS011;64406;50.024;14.492;2024-03-29T01:46:22;2.28;;;1.58;;
75787;SDS011;64406;50.024;14.492;2024-03-29T01:48:52;2.47;;;1.63;;
75787;SDS011;64406;50.024;14.492;2024-03-29T01:51:22;1.73;;;1.55;;
75787;SDS011;64406;50.024;14.492;2024-03-29T01:53:49;2.33;;;1.60;;
75787;SDS011;64406;50.024;14.492;2024-03-29T01:56:18;1.80;;;1.42;;
75787;SDS011;64406;50.024;14.492;2024-03-29T01:58:46;3.00;;;1.65;;
75787;SDS011;64406;50.024;14.492;2024-03-29T02:01:15;3.08;;;1.58;;
75787;SDS011;64406;50.024;14.492;2024-03-29T02:03:41;3.67;;;1.73;;
75787;SDS011;64406;50.024;14.492;2024-03-29T02:06:07;3.90;;;1.65;;
75787;SDS011;64406;50.024;14.492;2024-03-29T02:08:35;3.78;;;1.77;;
75787;SDS011;64406;50.024;14.492;2024-03-29T02:11:02;3.13;;;1.90;;
75787;SDS011;64406;50.024;14.492;2024-03-29T02:13:29;3.17;;;1.75;;
75787;SDS011;64406;50.024;14.492;2024-03-29T02:15:55;1.63;;;1.30;;
75787;SDS011;64406;50.024;14.492;2024-03-29T02:18:20;6.72;;;1.60;;
75787;SDS011;64406;50.024;14.492;2024-03-29T02:20:46;2.85;;;1.70;;
75787;SDS011;64406;50.024;14.492;2024-03-29T02:23:26;2.67;;;1.60;;
75787;SDS011;64406;50.024;14.492;2024-03-29T02:25:53;6.55;;;1.98;;
75787;SDS011;64406;50.024;14.492;2024-03-29T02:28:20;1.80;;;1.27;;
75787;SDS011;64406;50.024;14.492;2024-03-29T02:30:47;3.13;;;1.30;;
75787;SDS011;64406;50.024;14.492;2024-03-29T02:33:16;3.53;;;1.73;;
75787;SDS011;64406;50.024;14.492;2024-03-29T02:35:42;2.15;;;1.40;;
75787;SDS011;64406;50.024;14.492;2024-03-29T02:38:08;1.88;;;1.48;;
75787;SDS011;64406;50.024;14.492;2024-03-29T02:40:33;2.47;;;1.48;;
75787;SDS011;64406;50.024;14.492;2024-03-29T02:42:59;2.08;;;1.77;;
75787;SDS011;64406;50.024;14.492;2024-03-29T02:45:25;2.60;;;1.55;;
75787;SDS011;64406;50.024;14.492;2024-03-29T02:47:50;1.58;;;1.27;;
75787;SDS011;64406;50.024;14.492;2024-03-29T02:50:16;1.85;;;1.60;;
75787;SDS011;64406;50.024;14.492;2024-03-29T02:52:42;2.60;;;1.58;;
75787;SDS011;64406;50.024;14.492;2024-03-29T02:55:08;2.50;;;1.48;;
75787;SDS011;64406;50.024;14.492;2024-03-29T02:57:36;2.15;;;1.55;;
75787;SDS011;64406;50.024;14.492;2024-03-29T03:00:04;2.30;;;1.90;;
75787;SDS011;64406;50.024;14.492;2024-03-29T03:02:30;5.28;;;1.52;;
75787;SDS011;64406;50.024;14.492;2024-03-29T03:04:55;3.45;;;1.55;;
75787;SDS011;64406;50.024;14.492;2024-03-29T03:07:21;2.80;;;1.88;;
75787;SDS011;64406;50.024;14.492;2024-03-29T03:10:06;2.55;;;1.83;;
75787;SDS011;64406;50.024;14.492;2024-03-29T03:15:16;2.05;;;1.52;;
75787;SDS011;64406;50.024;14.492;2024-03-29T03:17:41;2.95;;;1.85;;
75787;SDS011;64406;50.024;14.492;2024-03-29T03:20:07;3.22;;;1.90;;
75787;SDS011;64406;50.024;14.492;2024-03-29T03:22:34;3.17;;;1.60;;
75787;SDS011;64406;50.024;14.492;2024-03-29T03:25:00;2.65;;;1.50;;
75787;SDS011;64406;50.024;14.492;2024-03-29T03:27:26;3.10;;;1.77;;
75787;SDS011;64406;50.024;14.492;2024-03-29T03:29:52;4.10;;;2.15;;
75787;SDS011;64406;50.024;14.492;2024-03-29T03:32:17;1.77;;;1.58;;
75787;SDS011;64406;50.024;14.492;2024-03-29T03:34:43;2.33;;;1.65;;
75787;SDS011;64406;50.024;14.492;2024-03-29T03:37:08;1.90;;;1.50;;
75787;SDS011;64406;50.024;14.492;2024-03-29T03:39:34;4.30;;;2.03;;
75787;SDS011;64406;50.024;14.492;2024-03-29T03:42:00;3.60;;;1.45;;
75787;SDS011;64406;50.024;14.492;2024-03-29T03:44:25;2.28;;;1.70;;
75787;SDS011;64406;50.024;14.492;2024-03-29T03:46:53;2.78;;;1.73;;
75787;SDS011;64406;50.024;14.492;2024-03-29T03:49:19;3.72;;;1.73;;
75787;SDS011;64406;50.024;14.492;2024-03-29T03:51:44;3.42;;;1.85;;
75787;SDS011;64406;50.024;14.492;2024-03-29T03:54:10;2.10;;;1.70;;
75787;SDS011;64406;50.024;14.492;2024-03-29T03:56:36;1.90;;;1.38;;
75787;SDS011;64406;50.024;14.492;2024-03-29T03:59:01;4.25;;;1.60;;
75787;SDS011;64406;50.024;14.492;2024-03-29T04:01:27;1.75;;;1.25;;
75787;SDS011;64406;50.024;14.492;2024-03-29T04:03:53;1.15;;;0.90;;
75787;SDS011;64406;50.024;14.492;2024-03-29T04:06:18;2.13;;;1.30;;
75787;SDS011;64406;50.024;14.492;2024-03-29T04:08:44;1.98;;;1.40;;
75787;SDS011;64406;50.024;14.492;2024-03-29T04:11:10;2.05;;;1.20;;
75787;SDS011;64406;50.024;14.492;2024-03-29T04:13:36;3.63;;;1.95;;
75787;SDS011;64406;50.024;14.492;2024-03-29T04:16:04;4.13;;;1.27;;
75787;SDS011;64406;50.024;14.492;2024-03-29T04:18:35;2.60;;;1.30;;
75787;SDS011;64406;50.024;14.492;2024-03-29T04:21:02;1.63;;;1.20;;
75787;SDS011;64406;50.024;14.492;2024-03-29T04:23:29;3.13;;;1.50;;
75787;SDS011;64406;50.024;14.492;2024-03-29T04:25:55;1.48;;;1.02;;
75787;SDS011;64406;50.024;14.492;2024-03-29T04:28:21;2.90;;;1.30;;
75787;SDS011;64406;50.024;14.492;2024-03-29T04:30:53;2.55;;;1.60;;
75787;SDS011;64406;50.024;14.492;2024-03-29T04:33:20;2.67;;;1.47;;
75787;SDS011;64406;50.024;14.492;2024-03-29T04:38:28;2.38;;;1.10;;
75787;SDS011;64406;50.024;14.492;2024-03-29T04:40:55;3.10;;;1.60;;
75787;SDS011;64406;50.024;14.492;2024-03-29T04:43:23;1.48;;;1.27;;
75787;SDS011;64406;50.024;14.492;2024-03-29T04:45:49;2.08;;;1.40;;
75787;SDS011;64406;50.024;14.492;2024-03-29T04:48:15;2.28;;;1.23;;
75787;SDS011;64406;50.024;14.492;2024-03-29T04:50:41;3.40;;;1.30;;
75787;SDS011;64406;50.024;14.492;2024-03-29T04:53:07;1.20;;;1.10;;
75787;SDS011;64406;50.024;14.492;2024-03-29T04:55:33;4.95;;;1.90;;
75787;SDS011;64406;50.024;14.492;2024-03-29T04:58:01;4.20;;;2.30;;
75787;SDS011;64406;50.024;14.492;2024-03-29T05:00:27;2.83;;;2.13;;
75787;SDS011;64406;50.024;14.492;2024-03-29T05:02:52;2.50;;;1.60;;
75787;SDS011;64406;50.024;14.492;2024-03-29T05:05:18;2.53;;;1.40;;
75787;SDS011;64406;50.024;14.492;2024-03-29T05:07:44;1.90;;;1.50;;
75787;SDS011;64406;50.024;14.492;2024-03-29T05:10:09;1.92;;;1.00;;
75787;SDS011;64406;50.024;14.492;2024-03-29T05:12:35;1.63;;;1.10;;
75787;SDS011;64406;50.024;14.492;2024-03-29T05:15:01;2.47;;;1.20;;
75787;SDS011;64406;50.024;14.492;2024-03-29T05:17:28;2.33;;;1.15;;
75787;SDS011;64406;50.024;14.492;2024-03-29T05:19:53;1.90;;;1.20;;
75787;SDS011;64406;50.024;14.492;2024-03-29T05:22:19;1.77;;;1.38;;
75787;SDS011;64406;50.024;14.492;2024-03-29T05:24:45;1.73;;;1.40;;
75787;SDS011;64406;50.024;14.492;2024-03-29T05:27:11;2.90;;;1.45;;
75787;SDS011;64406;50.024;14.492;2024-03-29T05:29:37;2.28;;;1.63;;
75787;SDS011;64406;50.024;14.492;2024-03-29T05:32:04;1.52;;;0.98;;
75787;SDS011;64406;50.024;14.492;2024-03-29T05:34:30;1.88;;;1.08;;
75787;SDS011;64406;50.024;14.492;2024-03-29T05:36:55;2.20;;;1.08;;
75787;SDS011;64406;50.024;14.492;2024-03-29T05:39:21;0.98;;;0.88;;
75787;SDS011;64406;50.024;14.492;2024-03-29T05:41:46;1.60;;;0.90;;
75787;SDS011;64406;50.024;14.492;2024-03-29T05:44:12;1.33;;;1.00;;
75787;SDS011;64406;50.024;14.492;2024-03-29T05:46:39;3.22;;;0.80;;
75787;SDS011;64406;50.024;14.492;2024-03-29T05:49:05;1.33;;;1.05;;
75787;SDS011;64406;50.024;14.492;2024-03-29T05:51:31;1.13;;;0.90;;
75787;SDS011;64406;50.024;14.492;2024-03-29T05:53:59;2.95;;;0.90;;
75787;SDS011;64406;50.024;14.492;2024-03-29T05:56:25;1.02;;;0.93;;
75787;SDS011;64406;50.024;14.492;2024-03-29T05:58:51;0.85;;;0.75;;
75787;SDS011;64406;50.024;14.492;2024-03-29T06:01:16;1.90;;;0.90;;
75787;SDS011;64406;50.024;14.492;2024-03-29T06:03:42;2.65;;;1.10;;
75787;SDS011;64406;50.024;14.492;2024-03-29T06:06:08;1.13;;;0.98;;
75787;SDS011;64406;50.024;14.492;2024-03-29T06:08:37;2.13;;;1.20;;
75787;SDS011;64406;50.024;14.492;2024-03-29T06:11:03;3.58;;;1.50;;
75787;SDS011;64406;50.024;14.492;2024-03-29T06:13:28;2.72;;;1.40;;
75787;SDS011;64406;50.024;14.492;2024-03-29T06:16:12;1.23;;;1.13;;
75787;SDS011;64406;50.024;14.492;2024-03-29T06:21:22;2.05;;;0.82;;
75787;SDS011;64406;50.024;14.492;2024-03-29T06:23:48;2.47;;;0.98;;
75787;SDS011;64406;50.024;14.492;2024-03-29T06:26:14;1.15;;;1.00;;
75787;SDS011;64406;50.024;14.492;2024-03-29T06:28:39;2.45;;;0.90;;
75787;SDS011;64406;50.024;14.492;2024-03-29T06:31:05;1.30;;;1.08;;
75787;SDS011;64406;50.024;14.492;2024-03-29T06:33:30;1.83;;;0.80;;
75787;SDS011;64406;50.024;14.492;2024-03-29T06:35:56;1.17;;;0.75;;
75787;SDS011;64406;50.024;14.492;2024-03-29T06:38:22;1.67;;;0.93;;
75787;SDS011;64406;50.024;14.492;2024-03-29T06:40:47;1.30;;;0.70;;
75787;SDS011;64406;50.024;14.492;2024-03-29T06:43:13;2.08;;;0.73;;
75787;SDS011;64406;50.024;14.492;2024-03-29T06:45:40;1.55;;;0.90;;
75787;SDS011;64406;50.024;14.492;2024-03-29T06:48:07;1.17;;;0.73;;
75787;SDS011;64406;50.024;14.492;2024-03-29T06:50:34;1.85;;;0.98;;
75787;SDS011;64406;50.024;14.492;2024-03-29T06:53:00;4.88;;;1.63;;
75787;SDS011;64406;50.024;14.492;2024-03-29T06:55:26;1.30;;;0.82;;
75787;SDS011;64406;50.024;14.492;2024-03-29T06:57:51;1.95;;;0.90;;
75787;SDS011;64406;50.024;14.492;2024-03-29T07:00:17;0.98;;;0.70;;
75787;SDS011;64406;50.024;14.492;2024-03-29T07:02:43;0.98;;;0.77;;
75787;SDS011;64406;50.024;14.492;2024-03-29T07:05:09;1.13;;;0.73;;
75787;SDS011;64406;50.024;14.492;2024-03-29T07:07:39;1.13;;;0.82;;
75787;SDS011;64406;50.024;14.492;2024-03-29T07:10:06;0.75;;;0.63;;
75787;SDS011;64406;50.024;14.492;2024-03-29T07:12:32;1.27;;;0.52;;
75787;SDS011;64406;50.024;14.492;2024-03-29T07:14:57;0.50;;;0.50;;
75787;SDS011;64406;50.024;14.492;2024-03-29T07:17:23;2.03;;;0.77;;
75787;SDS011;64406;50.024;14.492;2024-03-29T07:19:49;0.60;;;0.57;;
75787;SDS011;64406;50.024;14.492;2024-03-29T07:22:14;1.55;;;0.70;;
75787;SDS011;64406;50.024;14.492;2024-03-29T07:24:40;0.57;;;0.57;;
75787;SDS011;64406;50.024;14.492;2024-03-29T07:27:05;1.48;;;0.77;;
75787;SDS011;64406;50.024;14.492;2024-03-29T07:29:31;5.22;;;1.08;;
75787;SDS011;64406;50.024;14.492;2024-03-29T07:31:59;2.00;;;0.70;;
75787;SDS011;64406;50.024;14.492;2024-03-29T07:34:25;1.02;;;0.65;;
75787;SDS011;64406;50.024;14.492;2024-03-29T07:36:51;1.30;;;0.63;;
75787;SDS011;64406;50.024;14.492;2024-03-29T07:39:16;1.08;;;0.75;;
75787;SDS011;64406;50.024;14.492;2024-03-29T07:41:42;0.85;;;0.50;;
75787;SDS011;64406;50.024;14.492;2024-03-29T07:44:08;1.35;;;0.65;;
75787;SDS011;64406;50.024;14.492;2024-03-29T07:46:36;2.85;;;0.73;;
75787;SDS011;64406;50.024;14.492;2024-03-29T07:49:03;2.65;;;0.77;;
75787;SDS011;64406;50.024;14.492;2024-03-29T07:51:29;2.83;;;0.90;;
75787;SDS011;64406;50.024;14.492;2024-03-29T07:53:55;1.05;;;0.52;;
75787;SDS011;64406;50.024;14.492;2024-03-29T07:56:20;1.58;;;0.63;;
75787;SDS011;64406;50.024;14.492;2024-03-29T07:58:53;1.70;;;1.00;;
75787;SDS011;64406;50.024;14.492;2024-03-29T08:01:23;1.55;;;0.60;;
75787;SDS011;64406;50.024;14.492;2024-03-29T08:03:50;1.25;;;0.50;;
75787;SDS011;64406;50.024;14.492;2024-03-29T08:06:16;2.50;;;0.80;;
75787;SDS011;64406;50.024;14.492;2024-03-29T08:08:44;0.75;;;0.75;;
75787;SDS011;64406;50.024;14.492;2024-03-29T08:11:10;1.70;;;0.63;;
75787;SDS011;64406;50.024;14.492;2024-03-29T08:13:37;1.23;;;0.50;;
75787;SDS011;64406;50.024;14.492;2024-03-29T08:16:04;1.35;;;0.75;;
75787;SDS011;64406;50.024;14.492;2024-03-29T08:18:31;2.03;;;0.73;;
75787;SDS011;64406;50.024;14.492;2024-03-29T08:20:56;1.75;;;0.95;;
75787;SDS011;64406;50.024;14.492;2024-03-29T08:23:23;4.85;;;1.15;;
75787;SDS011;64406;50.024;14.492;2024-03-29T08:25:49;2.75;;;1.40;;
75787;SDS011;64406;50.024;14.492;2024-03-29T08:28:17;1.38;;;0.60;;
75787;SDS011;64406;50.024;14.492;2024-03-29T08:30:43;1.83;;;0.70;;
75787;SDS011;64406;50.024;14.492;2024-03-29T08:33:10;1.10;;;0.60;;
75787;SDS011;64406;50.024;14.492;2024-03-29T08:35:35;2.03;;;0.95;;
75787;SDS011;64406;50.024;14.492;2024-03-29T08:38:01;0.70;;;0.40;;
75787;SDS011;64406;50.024;14.492;2024-03-29T08:40:28;1.13;;;0.57;;
75787;SDS011;64406;50.024;14.492;2024-03-29T08:42:56;4.63;;;0.90;;
75787;SDS011;64406;50.024;14.492;2024-03-29T08:45:22;1.77;;;0.60;;
75787;SDS011;64406;50.024;14.492;2024-03-29T08:47:48;1.42;;;0.70;;
75787;SDS011;64406;50.024;14.492;2024-03-29T08:50:14;2.13;;;0.80;;
75787;SDS011;64406;50.024;14.492;2024-03-29T08:52:40;0.73;;;0.60;;
75787;SDS011;64406;50.024;14.492;2024-03-29T08:55:06;3.10;;;0.80;;
75787;SDS011;64406;50.024;14.492;2024-03-29T08:57:32;1.38;;;0.80;;
75787;SDS011;64406;50.024;14.492;2024-03-29T08:59:58;1.80;;;0.73;;
75787;SDS011;64406;50.024;14.492;2024-03-29T09:02:23;2.08;;;0.47;;
75787;SDS011;64406;50.024;14.492;2024-03-29T09:04:49;1.15;;;0.50;;
75787;SDS011;64406;50.024;14.492;2024-03-29T09:07:15;1.52;;;0.70;;
75787;SDS011;64406;50.024;14.492;2024-03-29T09:09:40;0.73;;;0.40;;
75787;SDS011;64406;50.024;14.492;2024-03-29T09:12:07;0.68;;;0.40;;
75787;SDS011;64406;50.024;14.492;2024-03-29T09:14:33;1.45;;;0.43;;
75787;SDS011;64406;50.024;14.492;2024-03-29T09:16:59;3.35;;;0.50;;
75787;SDS011;64406;50.024;14.492;2024-03-29T09:19:25;1.90;;;0.73;;
75787;SDS011;64406;50.024;14.492;2024-03-29T09:21:51;1.25;;;0.43;;
75787;SDS011;64406;50.024;14.492;2024-03-29T09:24:16;1.08;;;0.45;;
75787;SDS011;64406;50.024;14.492;2024-03-29T09:26:43;0.68;;;0.45;;
75787;SDS011;64406;50.024;14.492;2024-03-29T09:29:08;1.30;;;0.50;;
75787;SDS011;64406;50.024;14.492;2024-03-29T09:31:34;0.60;;;0.57;;
75787;SDS011;64406;50.024;14.492;2024-03-29T09:34:00;1.38;;;0.40;;
75787;SDS011;64406;50.024;14.492;2024-03-29T09:36:26;1.13;;;0.63;;
75787;SDS011;64406;50.024;14.492;2024-03-29T09:38:52;0.75;;;0.30;;
75787;SDS011;64406;50.024;14.492;2024-03-29T09:41:18;0.82;;;0.40;;
75787;SDS011;64406;50.024;14.492;2024-03-29T09:43:45;1.98;;;0.40;;
75787;SDS011;64406;50.024;14.492;2024-03-29T09:46:16;1.20;;;0.40;;
75787;SDS011;64406;50.024;14.492;2024-03-29T09:48:43;2.55;;;0.50;;
75787;SDS011;64406;50.024;14.492;2024-03-29T09:51:11;1.88;;;0.68;;
75787;SDS011;64406;50.024;14.492;2024-03-29T09:53:41;1.73;;;0.43;;
75787;SDS011;64406;50.024;14.492;2024-03-29T09:56:08;2.22;;;0.30;;
75787;SDS011;64406;50.024;14.492;2024-03-29T09:58:35;0.38;;;0.20;;
75787;SDS011;64406;50.024;14.492;2024-03-29T10:01:02;4.35;;;0.40;;
75787;SDS011;64406;50.024;14.492;2024-03-29T10:03:29;3.97;;;1.10;;
75787;SDS011;64406;50.024;14.492;2024-03-29T10:05:57;0.88;;;0.30;;
75787;SDS011;64406;50.024;14.492;2024-03-29T10:08:29;2.63;;;0.40;;
75787;SDS011;64406;50.024;14.492;2024-03-29T10:10:56;9.50;;;0.93;;
75787;SDS011;64406;50.024;14.492;2024-03-29T10:13:22;0.57;;;0.32;;
75787;SDS011;64406;50.024;14.492;2024-03-29T10:15:49;1.90;;;0.43;;
75787;SDS011;64406;50.024;14.492;2024-03-29T10:18:17;2.58;;;1.33;;
75787;SDS011;64406;50.024;14.492;2024-03-29T10:20:45;1.45;;;0.40;;
75787;SDS011;64406;50.024;14.492;2024-03-29T10:23:11;0.30;;;0.30;;
75787;SDS011;64406;50.024;14.492;2024-03-29T10:25:37;0.38;;;0.32;;
75787;SDS011;64406;50.024;14.492;2024-03-29T10:28:03;0.40;;;0.30;;
75787;SDS011;64406;50.024;14.492;2024-03-29T10:30:29;1.75;;;0.50;;
75787;SDS011;64406;50.024;14.492;2024-03-29T10:32:55;0.40;;;0.25;;
75787;SDS011;64406;50.024;14.492;2024-03-29T10:35:22;0.55;;;0.40;;
75787;SDS011;64406;50.024;14.492;2024-03-29T10:37:54;1.95;;;0.40;;
75787;SDS011;64406;50.024;14.492;2024-03-29T10:40:20;2.55;;;0.50;;
75787;SDS011;64406;50.024;14.492;2024-03-29T10:42:47;0.80;;;0.50;;
75787;SDS011;64406;50.024;14.492;2024-03-29T10:45:14;1.00;;;0.60;;
75787;SDS011;64406;50.024;14.492;2024-03-29T10:47:41;2.97;;;0.85;;
75787;SDS011;64406;50.024;14.492;2024-03-29T10:50:12;1.10;;;0.57;;
75787;SDS011;64406;50.024;14.492;2024-03-29T10:52:39;0.98;;;0.32;;
75787;SDS011;64406;50.024;14.492;2024-03-29T10:55:08;0.68;;;0.47;;
75787;SDS011;64406;50.024;14.492;2024-03-29T10:57:34;0.38;;;0.38;;
75787;SDS011;64406;50.024;14.492;2024-03-29T11:05:26;0.95;;;0.57;;
75787;SDS011;64406;50.024;14.492;2024-03-29T11:07:54;1.20;;;0.65;;
75787;SDS011;64406;50.024;14.492;2024-03-29T11:10:25;2.45;;;0.70;;
75787;SDS011;64406;50.024;14.492;2024-03-29T11:13:06;0.40;;;0.35;;
75787;SDS011;64406;50.024;14.492;2024-03-29T11:15:44;1.45;;;0.52;;
75787;SDS011;64406;50.024;14.492;2024-03-29T11:18:13;2.35;;;0.73;;
75787;SDS011;64406;50.024;14.492;2024-03-29T11:20:47;1.00;;;0.50;;
75787;SDS011;64406;50.024;14.492;2024-03-29T11:23:20;0.38;;;0.38;;
75787;SDS011;64406;50.024;14.492;2024-03-29T11:25:50;1.02;;;0.60;;
75787;SDS011;64406;50.024;14.492;2024-03-29T11:28:24;0.90;;;0.47;;
75787;SDS011;64406;50.024;14.492;2024-03-29T11:30:52;1.20;;;0.52;;
75787;SDS011;64406;50.024;14.492;2024-03-29T11:33:35;4.13;;;0.63;;
75787;SDS011;64406;50.024;14.492;2024-03-29T11:38:45;0.68;;;0.55;;
75787;SDS011;64406;50.024;14.492;2024-03-29T11:43:43;0.95;;;0.60;;
75787;SDS011;64406;50.024;14.492;2024-03-29T11:46:10;0.88;;;0.50;;
75787;SDS011;64406;50.024;14.492;2024-03-29T11:48:38;1.25;;;0.50;;
75787;SDS011;64406;50.024;14.492;2024-03-29T11:51:05;2.08;;;0.50;;
75787;SDS011;64406;50.024;14.492;2024-03-29T11:53:36;1.15;;;0.60;;
75787;SDS011;64406;50.024;14.492;2024-03-29T11:56:03;1.58;;;0.50;;
75787;SDS011;64406;50.024;14.492;2024-03-29T11:58:29;0.47;;;0.40;;
75787;SDS011;64406;50.024;14.492;2024-03-29T12:00:57;1.10;;;0.43;;
75787;SDS011;64406;50.024;14.492;2024-03-29T12:03:24;0.68;;;0.50;;
75787;SDS011;64406;50.024;14.492;2024-03-29T12:05:51;1.20;;;0.60;;
75787;SDS011;64406;50.024;14.492;2024-03-29T12:08:20;4.05;;;0.60;;
75787;SDS011;64406;50.024;14.492;2024-03-29T12:10:46;2.90;;;0.60;;
75787;SDS011;64406;50.024;14.492;2024-03-29T12:13:15;0.50;;;0.40;;
75787;SDS011;64406;50.024;14.492;2024-03-29T12:15:42;0.45;;;0.43;;
75787;SDS011;64406;50.024;14.492;2024-03-29T12:18:08;0.40;;;0.38;;
75787;SDS011;64406;50.024;14.492;2024-03-29T12:20:35;0.75;;;0.40;;
75787;SDS011;64406;50.024;14.492;2024-03-29T12:23:03;0.40;;;0.40;;
75787;SDS011;64406;50.024;14.492;2024-03-29T12:25:35;0.93;;;0.70;;
75787;SDS011;64406;50.024;14.492;2024-03-29T12:28:02;1.00;;;0.45;;
75787;SDS011;64406;50.024;14.492;2024-03-29T12:30:28;0.60;;;0.50;;
75787;SDS011;64406;50.024;14.492;2024-03-29T12:35:33;0.52;;;0.40;;
75787;SDS011;64406;50.024;14.492;2024-03-29T12:38:00;0.77;;;0.55;;
75787;SDS011;64406;50.024;14.492;2024-03-29T12:40:30;1.48;;;0.55;;
75787;SDS011;64406;50.024;14.492;2024-03-29T12:43:02;1.30;;;0.50;;
75787;SDS011;64406;50.024;14.492;2024-03-29T12:45:36;0.60;;;0.60;;
75787;SDS011;64406;50.024;14.492;2024-03-29T12:48:09;0.43;;;0.40;;
75787;SDS011;64406;50.024;14.492;2024-03-29T12:50:41;0.93;;;0.80;;
75787;SDS011;64406;50.024;14.492;2024-03-29T12:53:09;0.50;;;0.50;;
75787;SDS011;64406;50.024;14.492;2024-03-29T12:55:36;0.85;;;0.60;;
75787;SDS011;64406;50.024;14.492;2024-03-29T12:58:05;1.05;;;0.68;;
75787;SDS011;64406;50.024;14.492;2024-03-29T13:00:34;1.35;;;0.65;;
75787;SDS011;64406;50.024;14.492;2024-03-29T13:03:04;0.82;;;0.50;;
75787;SDS011;64406;50.024;14.492;2024-03-29T13:05:30;1.75;;;0.57;;
75787;SDS011;64406;50.024;14.492;2024-03-29T13:08:04;0.40;;;0.40;;
75787;SDS011;64406;50.024;14.492;2024-03-29T13:10:30;0.98;;;0.60;;
75787;SDS011;64406;50.024;14.492;2024-03-29T13:12:57;1.10;;;0.68;;
75787;SDS011;64406;50.024;14.492;2024-03-29T13:15:23;0.65;;;0.50;;
75787;SDS011;64406;50.024;14.492;2024-03-29T13:17:51;1.60;;;0.45;;
75787;SDS011;64406;50.024;14.492;2024-03-29T13:20:17;1.15;;;0.50;;
75787;SDS011;64406;50.024;14.492;2024-03-29T13:22:44;1.58;;;0.55;;
75787;SDS011;64406;50.024;14.492;2024-03-29T13:25:15;0.90;;;0.60;;
75787;SDS011;64406;50.024;14.492;2024-03-29T13:27:42;0.93;;;0.50;;
75787;SDS011;64406;50.024;14.492;2024-03-29T13:30:09;0.30;;;0.30;;
75787;SDS011;64406;50.024;14.492;2024-03-29T13:32:36;0.47;;;0.47;;
75787;SDS011;64406;50.024;14.492;2024-03-29T13:35:03;0.65;;;0.60;;
75787;SDS011;64406;50.024;14.492;2024-03-29T13:37:31;1.10;;;0.65;;
75787;SDS011;64406;50.024;14.492;2024-03-29T13:39:57;0.70;;;0.65;;
75787;SDS011;64406;50.024;14.492;2024-03-29T13:42:23;1.08;;;0.73;;
75787;SDS011;64406;50.024;14.492;2024-03-29T13:44:52;0.95;;;0.77;;
75787;SDS011;64406;50.024;14.492;2024-03-29T13:47:18;1.65;;;0.90;;
75787;SDS011;64406;50.024;14.492;2024-03-29T13:49:44;0.77;;;0.65;;
75787;SDS011;64406;50.024;14.492;2024-03-29T13:52:14;0.70;;;0.68;;
75787;SDS011;64406;50.024;14.492;2024-03-29T13:54:43;1.75;;;0.85;;
75787;SDS011;64406;50.024;14.492;2024-03-29T13:57:09;0.90;;;0.50;;
75787;SDS011;64406;50.024;14.492;2024-03-29T13:59:35;1.75;;;0.80;;
75787;SDS011;64406;50.024;14.492;2024-03-29T14:02:01;1.27;;;0.70;;
75787;SDS011;64406;50.024;14.492;2024-03-29T14:04:27;0.52;;;0.52;;
75787;SDS011;64406;50.024;14.492;2024-03-29T14:06:52;2.50;;;0.60;;
75787;SDS011;64406;50.024;14.492;2024-03-29T14:09:18;1.17;;;0.50;;
75787;SDS011;64406;50.024;14.492;2024-03-29T14:11:44;0.70;;;0.70;;
75787;SDS011;64406;50.024;14.492;2024-03-29T14:14:09;0.95;;;0.70;;
75787;SDS011;64406;50.024;14.492;2024-03-29T14:16:37;0.52;;;0.52;;
75787;SDS011;64406;50.024;14.492;2024-03-29T14:19:03;0.70;;;0.63;;
75787;SDS011;64406;50.024;14.492;2024-03-29T14:21:29;3.83;;;0.88;;
75787;SDS011;64406;50.024;14.492;2024-03-29T14:23:55;0.90;;;0.60;;
75787;SDS011;64406;50.024;14.492;2024-03-29T14:26:21;0.70;;;0.70;;
75787;SDS011;64406;50.024;14.492;2024-03-29T14:28:47;0.77;;;0.40;;
75787;SDS011;64406;50.024;14.492;2024-03-29T14:31:13;0.40;;;0.40;;
75787;SDS011;64406;50.024;14.492;2024-03-29T14:33:38;1.10;;;0.47;;
75787;SDS011;64406;50.024;14.492;2024-03-29T14:36:04;1.83;;;0.50;;
75787;SDS011;64406;50.024;14.492;2024-03-29T14:38:30;0.80;;;0.60;;
75787;SDS011;64406;50.024;14.492;2024-03-29T14:40:56;0.60;;;0.60;;
75787;SDS011;64406;50.024;14.492;2024-03-29T14:43:21;0.95;;;0.50;;
75787;SDS011;64406;50.024;14.492;2024-03-29T14:45:47;0.70;;;0.60;;
75787;SDS011;64406;50.024;14.492;2024-03-29T14:48:14;0.68;;;0.55;;
75787;SDS011;64406;50.024;14.492;2024-03-29T14:50:42;0.77;;;0.70;;
75787;SDS011;64406;50.024;14.492;2024-03-29T14:53:07;1.73;;;0.90;;